ウィーン の空港の天気 - METARとTAF

ウィーン国際空港 ( LOWW / VIE ) - オーストリア ウィーン
飛行場実況気象(Metar)
観測時間01/21 09:20 CET (01/21 08:20 UTC)
風向・風速北西 5m/s
視程10km以上
天気現象
少しの雲 雲底高度 240m
全天の8割程度の雲 雲底高度 370m
全天の8割程度の雲 雲底高度 670m
気温1℃
湿度93%
気圧1005hPa
METARLOWW 210820Z 32009KT 9999 FEW008 BKN012 BKN022 01/M00 Q1005 R88/19//95 TEMPO BKN008
過去の天気等 Google飛行場航空写真 Wunderground天気予報

過去48時間のMETAR

飛行場予報(TAF)
発表時間: 1/21 06:15 CET (1/21 05:15 UTC)
予報対象時間: 21日7時 CET ~ 22日13時 CET
風向・風速北北西 6m/s
視程10km以上
天気現象弱い雪
全天の4割程度の雲 雲底高度 300m
全天の8割程度の雲 雲底高度 760m
21日7時 CET ~ 21日13時 CET に 確率 40% で一時的に
視程1,500m
天気現象
全天の4割程度の雲 雲底高度 150m
全天を覆う雲 雲底高度 210m
21日13時 CET ~ 21日16時 CET に一時的に
天気現象弱い雨雪
21日13時 CET ~ 21日22時 CET に一時的に
風向・風速北北西 8m/s 瞬間風速 14m/s
21日16時 CET ~ 21日19時 CET に徐々に
視程10km以上
天気現象運行に影響にある天気現象が終了
全天の4割程度の雲 雲底高度 760m
全天の8割程度の雲 雲底高度 1,520m
22日2時 CET ~ 22日4時 CET に徐々に
風向・風速西 2m/s
少しの雲 雲底高度 760m
全天の4割程度の雲 雲底高度 4,270m
22日9時 CET ~ 22日12時 CET に徐々に
風向・風速南東 3m/s
TAF LOWW 210515Z 2106/2212 34012KT 9999 -SN SCT010 BKN025 TX02/2110Z TNM02/2207Z
PROB40 TEMPO 2106/2112 1500 SN SCT005 OVC007
TEMPO 2112/2115 -RASN
TEMPO 2112/2121 33015G27KT
BECMG 2115/2118 9999 NSW SCT025 BKN050
BECMG 2201/2203 28003KT FEW025 SCT140
BECMG 2208/2211 14005KT